sensor_id;sensor_type;location;lat;lon;timestamp;pressure;altitude;pressure_sealevel;temperature;humidity
11038;BME280;5572;49.540;11.932;2023-04-02T02:42:03;96101.72;;;9.24;100.00
11038;BME280;5572;49.540;11.932;2023-04-02T02:44:35;96077.88;;;9.13;100.00
11038;BME280;5572;49.540;11.932;2023-04-02T02:47:08;96071.91;;;8.97;100.00
11038;BME280;5572;49.540;11.932;2023-04-02T02:49:38;96059.28;;;8.74;100.00
11038;BME280;5572;49.540;11.932;2023-04-02T02:52:12;96054.94;;;8.78;100.00
11038;BME280;5572;49.540;11.932;2023-04-02T02:54:43;96048.63;;;8.64;100.00
11038;BME280;5572;49.540;11.932;2023-04-02T02:57:14;96059.94;;;8.66;100.00
11038;BME280;5572;49.540;11.932;2023-04-02T02:59:43;96063.06;;;8.55;100.00
11038;BME280;5572;49.540;11.932;2023-04-02T03:02:10;96061.88;;;8.43;100.00
11038;BME280;5572;49.540;11.932;2023-04-02T03:04:37;96084.72;;;8.45;100.00
11038;BME280;5572;49.540;11.932;2023-04-02T03:07:04;96088.84;;;8.38;100.00
11038;BME280;5572;49.540;11.932;2023-04-02T03:09:36;96126.88;;;8.54;100.00
11038;BME280;5572;49.540;11.932;2023-04-02T03:12:11;96139.34;;;8.51;100.00
11038;BME280;5572;49.540;11.932;2023-04-02T03:14:52;96135.81;;;8.50;100.00
11038;BME280;5572;49.540;11.932;2023-04-02T03:17:25;96151.50;;;8.48;100.00
11038;BME280;5572;49.540;11.932;2023-04-02T03:19:57;96162.53;;;8.47;100.00
11038;BME280;5572;49.540;11.932;2023-04-02T03:22:34;96169.53;;;8.48;100.00
11038;BME280;5572;49.540;11.932;2023-04-02T03:25:04;96174.38;;;8.46;100.00
11038;BME280;5572;49.540;11.932;2023-04-02T03:27:42;96185.47;;;8.44;100.00
11038;BME280;5572;49.540;11.932;2023-04-02T03:30:24;96194.38;;;8.40;100.00
11038;BME280;5572;49.540;11.932;2023-04-02T03:32:54;96196.84;;;8.36;100.00
11038;BME280;5572;49.540;11.932;2023-04-02T03:35:26;96214.53;;;8.47;100.00
11038;BME280;5572;49.540;11.932;2023-04-02T03:37:57;96221.25;;;8.45;100.00
11038;BME280;5572;49.540;11.932;2023-04-02T03:40:29;96218.81;;;8.48;100.00
11038;BME280;5572;49.540;11.932;2023-04-02T03:42:59;96232.28;;;8.48;100.00
11038;BME280;5572;49.540;11.932;2023-04-02T03:45:32;96234.97;;;8.48;100.00
11038;BME280;5572;49.540;11.932;2023-04-02T03:48:04;96234.69;;;8.50;100.00
11038;BME280;5572;49.540;11.932;2023-04-02T03:50:39;96235.25;;;8.47;100.00
11038;BME280;5572;49.540;11.932;2023-04-02T03:53:08;96234.16;;;8.48;100.00
11038;BME280;5572;49.540;11.932;2023-04-02T03:55:36;96244.38;;;8.51;100.00
11038;BME280;5572;49.540;11.932;2023-04-02T03:58:06;96252.69;;;8.54;100.00
11038;BME280;5572;49.540;11.932;2023-04-02T04:00:41;96262.63;;;8.53;100.00
11038;BME280;5572;49.540;11.932;2023-04-02T04:03:13;96273.94;;;8.55;100.00
11038;BME280;5572;49.540;11.932;2023-04-02T04:05:44;96265.59;;;8.57;100.00
11038;BME280;5572;49.540;11.932;2023-04-02T04:08:16;96265.63;;;8.52;100.00
11038;BME280;5572;49.540;11.932;2023-04-02T04:10:43;96262.25;;;8.42;100.00
11038;BME280;5572;49.540;11.932;2023-04-02T04:13:14;96273.50;;;8.44;100.00
11038;BME280;5572;49.540;11.932;2023-04-02T04:15:49;96277.53;;;8.46;100.00
11038;BME280;5572;49.540;11.932;2023-04-02T04:18:25;96287.25;;;8.47;100.00
11038;BME280;5572;49.540;11.932;2023-04-02T04:21:00;96292.81;;;8.55;100.00
11038;BME280;5572;49.540;11.932;2023-04-02T04:23:30;96300.41;;;8.49;100.00
11038;BME280;5572;49.540;11.932;2023-04-02T04:25:59;96302.56;;;8.47;100.00
11038;BME280;5572;49.540;11.932;2023-04-02T04:28:33;96312.28;;;8.48;100.00
11038;BME280;5572;49.540;11.932;2023-04-02T04:31:13;96311.97;;;8.49;100.00
11038;BME280;5572;49.540;11.932;2023-04-02T04:33:44;96314.41;;;8.51;100.00
11038;BME280;5572;49.540;11.932;2023-04-02T04:36:20;96318.22;;;8.45;100.00
11038;BME280;5572;49.540;11.932;2023-04-02T04:38:52;96340.44;;;8.60;100.00
11038;BME280;5572;49.540;11.932;2023-04-02T04:41:26;96344.88;;;8.46;100.00
11038;BME280;5572;49.540;11.932;2023-04-02T04:43:57;96342.13;;;8.51;100.00
11038;BME280;5572;49.540;11.932;2023-04-02T04:46:31;96347.50;;;8.56;100.00
11038;BME280;5572;49.540;11.932;2023-04-02T04:49:04;96349.66;;;8.54;100.00
11038;BME280;5572;49.540;11.932;2023-04-02T04:51:36;96352.66;;;8.53;100.00
11038;BME280;5572;49.540;11.932;2023-04-02T04:54:04;96345.13;;;8.50;100.00
11038;BME280;5572;49.540;11.932;2023-04-02T04:56:31;96354.28;;;8.49;100.00
11038;BME280;5572;49.540;11.932;2023-04-02T04:59:01;96367.44;;;8.50;100.00
11038;BME280;5572;49.540;11.932;2023-04-02T05:01:37;96370.13;;;8.55;100.00
11038;BME280;5572;49.540;11.932;2023-04-02T05:04:12;96374.63;;;8.64;100.00
11038;BME280;5572;49.540;11.932;2023-04-02T05:06:42;96384.63;;;8.59;100.00
11038;BME280;5572;49.540;11.932;2023-04-02T05:09:14;96380.59;;;8.61;100.00
11038;BME280;5572;49.540;11.932;2023-04-02T05:11:46;96383.84;;;8.58;100.00
11038;BME280;5572;49.540;11.932;2023-04-02T05:14:20;96394.28;;;8.65;100.00
11038;BME280;5572;49.540;11.932;2023-04-02T05:16:53;96408.28;;;8.67;100.00
11038;BME280;5572;49.540;11.932;2023-04-02T05:19:26;96390.84;;;8.59;100.00
11038;BME280;5572;49.540;11.932;2023-04-02T05:21:58;96401.56;;;8.64;100.00
11038;BME280;5572;49.540;11.932;2023-04-02T05:24:46;96411.19;;;8.75;100.00
11038;BME280;5572;49.540;11.932;2023-04-02T05:27:25;96412.25;;;8.74;100.00
11038;BME280;5572;49.540;11.932;2023-04-02T05:29:59;96417.16;;;8.72;100.00
11038;BME280;5572;49.540;11.932;2023-04-02T05:32:30;96429.50;;;8.73;100.00
11038;BME280;5572;49.540;11.932;2023-04-02T05:35:00;96419.78;;;8.77;100.00
11038;BME280;5572;49.540;11.932;2023-04-02T05:37:30;96423.31;;;8.78;100.00
11038;BME280;5572;49.540;11.932;2023-04-02T05:39:59;96440.81;;;8.75;100.00
11038;BME280;5572;49.540;11.932;2023-04-02T05:42:34;96437.88;;;8.77;100.00
11038;BME280;5572;49.540;11.932;2023-04-02T05:45:07;96431.25;;;8.93;100.00
11038;BME280;5572;49.540;11.932;2023-04-02T05:47:43;96443.66;;;8.94;100.00
11038;BME280;5572;49.540;11.932;2023-04-02T05:50:20;96444.72;;;8.98;100.00
11038;BME280;5572;49.540;11.932;2023-04-02T05:52:50;96441.28;;;8.87;100.00
11038;BME280;5572;49.540;11.932;2023-04-02T05:55:28;96448.50;;;8.97;100.00
11038;BME280;5572;49.540;11.932;2023-04-02T05:58:01;96461.91;;;9.02;100.00
11038;BME280;5572;49.540;11.932;2023-04-02T06:00:46;96467.84;;;8.99;100.00
11038;BME280;5572;49.540;11.932;2023-04-02T06:03:23;96465.91;;;9.09;100.00
11038;BME280;5572;49.540;11.932;2023-04-02T06:05:52;96453.56;;;9.03;100.00
11038;BME280;5572;49.540;11.932;2023-04-02T06:08:25;96459.44;;;9.10;100.00
11038;BME280;5572;49.540;11.932;2023-04-02T06:10:58;96464.50;;;9.17;100.00
11038;BME280;5572;49.540;11.932;2023-04-02T06:13:27;96461.56;;;9.13;100.00
11038;BME280;5572;49.540;11.932;2023-04-02T06:15:54;96461.22;;;9.20;100.00
11038;BME280;5572;49.540;11.932;2023-04-02T06:18:24;96458.81;;;9.18;100.00
11038;BME280;5572;49.540;11.932;2023-04-02T06:20:51;96464.91;;;9.29;100.00
11038;BME280;5572;49.540;11.932;2023-04-02T06:23:20;96471.38;;;9.33;100.00
11038;BME280;5572;49.540;11.932;2023-04-02T06:25:50;96474.50;;;9.44;100.00
11038;BME280;5572;49.540;11.932;2023-04-02T06:28:23;96476.13;;;9.40;100.00
11038;BME280;5572;49.540;11.932;2023-04-02T06:30:53;96468.38;;;9.34;100.00
11038;BME280;5572;49.540;11.932;2023-04-02T06:33:24;96469.41;;;9.43;100.00
11038;BME280;5572;49.540;11.932;2023-04-02T06:35:51;96461.56;;;9.41;100.00
11038;BME280;5572;49.540;11.932;2023-04-02T06:38:23;96460.53;;;9.38;100.00
11038;BME280;5572;49.540;11.932;2023-04-02T06:40:52;96460.25;;;9.39;100.00
11038;BME280;5572;49.540;11.932;2023-04-02T06:43:24;96461.56;;;9.41;100.00
11038;BME280;5572;49.540;11.932;2023-04-02T06:45:58;96460.44;;;9.47;100.00
11038;BME280;5572;49.540;11.932;2023-04-02T06:48:28;96470.13;;;9.48;100.00
11038;BME280;5572;49.540;11.932;2023-04-02T06:51:00;96466.94;;;9.46;100.00
11038;BME280;5572;49.540;11.932;2023-04-02T06:53:34;96474.06;;;9.61;100.00
11038;BME280;5572;49.540;11.932;2023-04-02T06:56:04;96465.53;;;9.49;100.00
11038;BME280;5572;49.540;11.932;2023-04-02T06:58:32;96454.94;;;9.29;100.00
11038;BME280;5572;49.540;11.932;2023-04-02T07:00:58;96467.34;;;9.30;100.00
11038;BME280;5572;49.540;11.932;2023-04-02T07:03:29;96474.88;;;9.33;100.00
11038;BME280;5572;49.540;11.932;2023-04-02T07:05:57;96484.09;;;9.27;100.00
11038;BME280;5572;49.540;11.932;2023-04-02T07:08:25;96490.78;;;9.30;100.00
11038;BME280;5572;49.540;11.932;2023-04-02T07:10:51;96511.22;;;9.07;100.00
11038;BME280;5572;49.540;11.932;2023-04-02T07:13:20;96512.75;;;9.18;100.00
11038;BME280;5572;49.540;11.932;2023-04-02T07:15:49;96518.97;;;9.14;100.00
11038;BME280;5572;49.540;11.932;2023-04-02T07:18:22;96527.94;;;9.04;100.00
11038;BME280;5572;49.540;11.932;2023-04-02T07:20:50;96523.50;;;8.85;100.00
11038;BME280;5572;49.540;11.932;2023-04-02T07:23:16;96538.94;;;8.69;100.00
11038;BME280;5572;49.540;11.932;2023-04-02T07:25:45;96541.66;;;8.64;100.00
11038;BME280;5572;49.540;11.932;2023-04-02T07:28:11;96543.56;;;8.64;100.00
11038;BME280;5572;49.540;11.932;2023-04-02T07:30:39;96559.00;;;8.44;100.00
11038;BME280;5572;49.540;11.932;2023-04-02T07:33:05;96577.75;;;8.68;100.00
11038;BME280;5572;49.540;11.932;2023-04-02T07:35:32;96589.84;;;8.71;100.00
11038;BME280;5572;49.540;11.932;2023-04-02T07:38:00;96613.44;;;8.99;100.00
11038;BME280;5572;49.540;11.932;2023-04-02T07:40:27;96608.09;;;8.89;100.00
11038;BME280;5572;49.540;11.932;2023-04-02T07:42:53;96624.72;;;9.06;100.00
11038;BME280;5572;49.540;11.932;2023-04-02T07:45:20;96624.03;;;8.80;100.00
11038;BME280;5572;49.540;11.932;2023-04-02T07:47:46;96605.94;;;8.91;100.00
11038;BME280;5572;49.540;11.932;2023-04-02T07:50:13;96602.50;;;8.75;100.00
11038;BME280;5572;49.540;11.932;2023-04-02T07:52:40;96580.16;;;8.75;100.00
11038;BME280;5572;49.540;11.932;2023-04-02T07:55:09;96589.31;;;8.69;100.00
11038;BME280;5572;49.540;11.932;2023-04-02T07:57:37;96585.19;;;8.86;100.00
11038;BME280;5572;49.540;11.932;2023-04-02T08:00:07;96590.75;;;9.05;100.00
11038;BME280;5572;49.540;11.932;2023-04-02T08:02:34;96572.06;;;8.75;100.00
11038;BME280;5572;49.540;11.932;2023-04-02T08:05:01;96562.66;;;8.67;100.00
11038;BME280;5572;49.540;11.932;2023-04-02T08:07:27;96579.19;;;8.99;100.00
11038;BME280;5572;49.540;11.932;2023-04-02T08:09:54;96581.13;;;8.94;100.00
11038;BME280;5572;49.540;11.932;2023-04-02T08:12:21;96574.47;;;8.76;100.00
11038;BME280;5572;49.540;11.932;2023-04-02T08:14:48;96580.63;;;8.82;100.00
11038;BME280;5572;49.540;11.932;2023-04-02T08:17:15;96567.72;;;8.79;100.00
11038;BME280;5572;49.540;11.932;2023-04-02T08:19:41;96580.69;;;8.72;100.00
11038;BME280;5572;49.540;11.932;2023-04-02T08:22:08;96566.88;;;8.88;100.00
11038;BME280;5572;49.540;11.932;2023-04-02T08:24:35;96565.34;;;8.72;100.00
11038;BME280;5572;49.540;11.932;2023-04-02T08:27:01;96565.78;;;8.31;100.00
11038;BME280;5572;49.540;11.932;2023-04-02T08:29:30;96576.50;;;8.46;100.00
11038;BME280;5572;49.540;11.932;2023-04-02T08:31:57;96564.94;;;8.41;100.00
11038;BME280;5572;49.540;11.932;2023-04-02T08:34:23;96567.09;;;8.34;100.00
11038;BME280;5572;49.540;11.932;2023-04-02T08:36:51;96575.75;;;8.31;100.00
11038;BME280;5572;49.540;11.932;2023-04-02T08:39:20;96583.25;;;8.34;100.00
11038;BME280;5572;49.540;11.932;2023-04-02T10:58:54;96726.50;;;7.71;100.00
11038;BME280;5572;49.540;11.932;2023-04-02T11:01:26;96742.09;;;7.84;100.00
11038;BME280;5572;49.540;11.932;2023-04-02T11:03:57;96751.53;;;7.91;100.00
11038;BME280;5572;49.540;11.932;2023-04-02T11:06:29;96767.47;;;8.18;100.00
11038;BME280;5572;49.540;11.932;2023-04-02T11:08:59;96740.25;;;7.94;100.00
11038;BME280;5572;49.540;11.932;2023-04-02T11:11:34;96750.19;;;7.94;100.00
11038;BME280;5572;49.540;11.932;2023-04-02T11:14:09;96720.84;;;7.58;100.00
11038;BME280;5572;49.540;11.932;2023-04-02T11:16:38;96730.25;;;7.65;100.00
11038;BME280;5572;49.540;11.932;2023-04-02T11:19:25;96773.63;;;7.98;100.00
11038;BME280;5572;49.540;11.932;2023-04-02T11:21:54;96758.00;;;7.90;100.00
11038;BME280;5572;49.540;11.932;2023-04-02T11:24:30;96752.88;;;7.89;100.00
11038;BME280;5572;49.540;11.932;2023-04-02T11:27:06;96751.81;;;7.80;100.00
11038;BME280;5572;49.540;11.932;2023-04-02T11:29:41;96739.66;;;7.63;100.00
11038;BME280;5572;49.540;11.932;2023-04-02T11:32:37;96747.47;;;7.59;100.00
11038;BME280;5572;49.540;11.932;2023-04-02T11:35:37;96765.75;;;7.67;100.00
11038;BME280;5572;49.540;11.932;2023-04-02T12:45:25;96792.31;;;7.44;100.00
11038;BME280;5572;49.540;11.932;2023-04-02T12:47:53;96784.16;;;7.19;100.00
11038;BME280;5572;49.540;11.932;2023-04-02T12:50:21;96775.59;;;7.27;100.00
11038;BME280;5572;49.540;11.932;2023-04-02T12:52:50;96776.13;;;7.29;100.00
11038;BME280;5572;49.540;11.932;2023-04-02T12:55:21;96797.13;;;7.27;100.00
11038;BME280;5572;49.540;11.932;2023-04-02T12:57:48;96790.72;;;7.43;100.00
11038;BME280;5572;49.540;11.932;2023-04-02T13:00:33;96799.75;;;7.17;100.00
11038;BME280;5572;49.540;11.932;2023-04-02T13:03:27;96805.28;;;6.95;100.00
11038;BME280;5572;49.540;11.932;2023-04-02T13:05:55;96803.88;;;7.39;100.00
11038;BME280;5572;49.540;11.932;2023-04-02T13:08:24;96816.66;;;7.12;100.00
11038;BME280;5572;49.540;11.932;2023-04-02T13:10:54;96811.25;;;7.02;100.00
11038;BME280;5572;49.540;11.932;2023-04-02T13:13:26;96831.41;;;7.05;100.00
11038;BME280;5572;49.540;11.932;2023-04-02T13:16:05;96806.44;;;7.09;100.00
11038;BME280;5572;49.540;11.932;2023-04-02T13:18:36;96803.22;;;7.17;100.00
11038;BME280;5572;49.540;11.932;2023-04-02T14:25:10;96655.72;;;7.61;100.00
11038;BME280;5572;49.540;11.932;2023-04-02T14:27:47;96656.25;;;7.38;100.00
11038;BME280;5572;49.540;11.932;2023-04-02T14:30:22;96637.69;;;7.46;100.00
11038;BME280;5572;49.540;11.932;2023-04-02T14:32:55;96616.47;;;7.55;100.00
11038;BME280;5572;49.540;11.932;2023-04-02T14:35:30;96623.22;;;7.62;100.00
11038;BME280;5572;49.540;11.932;2023-04-02T14:38:07;96627.19;;;7.30;100.00
11038;BME280;5572;49.540;11.932;2023-04-02T14:43:22;96624.50;;;7.40;100.00
11038;BME280;5572;49.540;11.932;2023-04-02T14:45:56;96618.06;;;7.16;100.00
11038;BME280;5572;49.540;11.932;2023-04-02T14:48:30;96611.59;;;7.12;100.00
11038;BME280;5572;49.540;11.932;2023-04-02T14:51:00;96604.38;;;7.57;100.00
11038;BME280;5572;49.540;11.932;2023-04-02T14:53:33;96601.94;;;7.51;100.00
11038;BME280;5572;49.540;11.932;2023-04-02T14:56:04;96588.75;;;7.34;100.00
11038;BME280;5572;49.540;11.932;2023-04-02T14:58:36;96584.72;;;7.42;100.00
11038;BME280;5572;49.540;11.932;2023-04-02T15:01:08;96568.59;;;7.42;100.00
11038;BME280;5572;49.540;11.932;2023-04-02T15:03:42;96546.81;;;7.73;100.00
11038;BME280;5572;49.540;11.932;2023-04-02T15:06:14;96536.06;;;7.38;100.00
11038;BME280;5572;49.540;11.932;2023-04-02T15:08:45;96556.25;;;7.36;100.00
11038;BME280;5572;49.540;11.932;2023-04-02T15:11:16;96539.81;;;7.57;100.00
11038;BME280;5572;49.540;11.932;2023-04-02T15:13:50;96526.94;;;7.39;100.00
11038;BME280;5572;49.540;11.932;2023-04-02T15:16:19;96523.97;;;7.46;100.00
11038;BME280;5572;49.540;11.932;2023-04-02T15:18:49;96525.06;;;7.25;100.00
11038;BME280;5572;49.540;11.932;2023-04-02T15:21:30;96490.38;;;7.33;100.00
11038;BME280;5572;49.540;11.932;2023-04-02T15:24:04;96477.72;;;7.19;100.00
11038;BME280;5572;49.540;11.932;2023-04-02T15:26:43;96351.91;;;7.31;100.00
11038;BME280;5572;49.540;11.932;2023-04-02T15:29:23;96288.50;;;7.25;100.00
11038;BME280;5572;49.540;11.932;2023-04-02T15:31:59;96286.63;;;7.25;100.00
11038;BME280;5572;49.540;11.932;2023-04-02T15:34:31;96281.53;;;7.19;100.00
11038;BME280;5572;49.540;11.932;2023-04-02T15:37:07;96251.84;;;7.44;100.00
11038;BME280;5572;49.540;11.932;2023-04-02T15:39:50;96273.69;;;7.32;100.00
11038;BME280;5572;49.540;11.932;2023-04-02T15:42:22;96263.09;;;7.51;100.00
11038;BME280;5572;49.540;11.932;2023-04-02T15:48:18;96327.97;;;7.39;100.00
11038;BME280;5572;49.540;11.932;2023-04-02T15:50:53;96349.09;;;7.66;100.00
11038;BME280;5572;49.540;11.932;2023-04-02T15:53:30;96378.53;;;7.32;100.00
11038;BME280;5572;49.540;11.932;2023-04-02T15:56:06;96401.91;;;7.32;100.00
11038;BME280;5572;49.540;11.932;2023-04-02T15:58:48;96399.75;;;7.39;100.00
11038;BME280;5572;49.540;11.932;2023-04-02T16:01:21;96450.59;;;7.10;100.00
11038;BME280;5572;49.540;11.932;2023-04-02T16:04:07;96449.78;;;6.90;100.00
11038;BME280;5572;49.540;11.932;2023-04-02T16:06:43;96457.31;;;7.03;100.00
11038;BME280;5572;49.540;11.932;2023-04-02T16:09:21;96461.91;;;7.12;100.00
11038;BME280;5572;49.540;11.932;2023-04-02T16:11:56;96482.31;;;7.08;100.00
11038;BME280;5572;49.540;11.932;2023-04-02T16:14:26;96514.53;;;6.79;100.00
11038;BME280;5572;49.540;11.932;2023-04-02T16:16:55;96539.81;;;6.82;100.00
11038;BME280;5572;49.540;11.932;2023-04-02T16:19:28;96540.03;;;6.66;100.00
11038;BME280;5572;49.540;11.932;2023-04-02T16:22:01;96576.19;;;6.39;100.00
11038;BME280;5572;49.540;11.932;2023-04-02T16:24:28;96574.06;;;6.46;100.00
11038;BME280;5572;49.540;11.932;2023-04-02T16:26:58;96601.59;;;6.21;100.00
11038;BME280;5572;49.540;11.932;2023-04-02T16:29:42;96594.44;;;6.37;100.00
11038;BME280;5572;49.540;11.932;2023-04-02T16:32:26;96601.91;;;6.30;100.00
11038;BME280;5572;49.540;11.932;2023-04-02T16:34:58;96619.25;;;6.07;100.00
11038;BME280;5572;49.540;11.932;2023-04-02T16:37:34;96618.84;;;5.89;100.00
11038;BME280;5572;49.540;11.932;2023-04-02T16:40:14;96624.56;;;6.02;100.00
11038;BME280;5572;49.540;11.932;2023-04-02T16:42:48;96639.25;;;5.90;100.00
11038;BME280;5572;49.540;11.932;2023-04-02T16:45:25;96661.88;;;5.73;100.00
11038;BME280;5572;49.540;11.932;2023-04-02T16:48:06;96656.22;;;5.69;100.00
11038;BME280;5572;49.540;11.932;2023-04-02T16:50:43;96676.91;;;5.74;100.00
11038;BME280;5572;49.540;11.932;2023-04-02T16:53:22;96671.19;;;5.65;100.00
11038;BME280;5572;49.540;11.932;2023-04-02T16:56:04;96695.19;;;5.50;100.00
11038;BME280;5572;49.540;11.932;2023-04-02T16:58:41;96697.47;;;5.63;100.00
11038;BME280;5572;49.540;11.932;2023-04-02T17:01:17;96705.00;;;5.40;100.00
11038;BME280;5572;49.540;11.932;2023-04-02T17:03:59;96725.22;;;5.26;100.00
11038;BME280;5572;49.540;11.932;2023-04-02T17:06:39;96729.25;;;5.23;100.00
11038;BME280;5572;49.540;11.932;2023-04-02T17:09:14;96752.72;;;5.38;100.00
11038;BME280;5572;49.540;11.932;2023-04-02T17:11:46;96750.81;;;5.38;100.00
11038;BME280;5572;49.540;11.932;2023-04-02T17:14:22;96758.59;;;5.13;100.00
11038;BME280;5572;49.540;11.932;2023-04-02T17:16:50;96775.03;;;5.01;100.00
11038;BME280;5572;49.540;11.932;2023-04-02T17:19:18;96784.31;;;4.93;100.00
11038;BME280;5572;49.540;11.932;2023-04-02T17:21:49;96798.25;;;4.95;100.00
11038;BME280;5572;49.540;11.932;2023-04-02T17:24:22;96804.22;;;5.02;100.00
11038;BME280;5572;49.540;11.932;2023-04-02T17:26:53;96796.59;;;5.10;100.00
11038;BME280;5572;49.540;11.932;2023-04-02T17:29:28;96802.44;;;5.07;100.00
11038;BME280;5572;49.540;11.932;2023-04-02T17:31:59;96801.94;;;5.10;100.00
11038;BME280;5572;49.540;11.932;2023-04-02T17:34:27;96829.03;;;4.93;100.00
11038;BME280;5572;49.540;11.932;2023-04-02T17:37:03;96837.28;;;4.91;100.00
11038;BME280;5572;49.540;11.932;2023-04-02T17:39:39;96842.34;;;4.88;100.00
11038;BME280;5572;49.540;11.932;2023-04-02T17:42:13;96865.13;;;4.90;100.00
11038;BME280;5572;49.540;11.932;2023-04-02T17:45:00;96866.38;;;4.83;100.00
11038;BME280;5572;49.540;11.932;2023-04-02T17:47:36;96875.94;;;4.79;100.00
11038;BME280;5572;49.540;11.932;2023-04-02T17:53:10;96911.44;;;4.53;100.00
11038;BME280;5572;49.540;11.932;2023-04-02T17:55:50;96916.69;;;4.48;100.00
11038;BME280;5572;49.540;11.932;2023-04-02T17:58:34;96933.00;;;4.46;100.00
11038;BME280;5572;49.540;11.932;2023-04-02T18:01:07;96946.88;;;4.60;100.00
11038;BME280;5572;49.540;11.932;2023-04-02T18:03:46;96946.53;;;4.56;100.00
11038;BME280;5572;49.540;11.932;2023-04-02T18:06:18;96959.41;;;4.43;100.00
11038;BME280;5572;49.540;11.932;2023-04-02T18:08:55;96982.94;;;4.41;100.00
11038;BME280;5572;49.540;11.932;2023-04-02T18:11:28;96997.16;;;4.30;100.00
11038;BME280;5572;49.540;11.932;2023-04-02T18:13:58;96999.72;;;4.36;100.00
11038;BME280;5572;49.540;11.932;2023-04-02T18:16:36;97010.16;;;4.38;100.00
11038;BME280;5572;49.540;11.932;2023-04-02T18:19:11;97016.69;;;4.30;100.00
11038;BME280;5572;49.540;11.932;2023-04-02T18:21:46;97038.28;;;4.24;100.00
11038;BME280;5572;49.540;11.932;2023-04-02T18:27:18;97048.00;;;4.30;100.00
11038;BME280;5572;49.540;11.932;2023-04-02T18:29:55;97052.06;;;4.32;100.00
11038;BME280;5572;49.540;11.932;2023-04-02T18:35:30;97075.56;;;4.30;100.00
11038;BME280;5572;49.540;11.932;2023-04-02T18:38:06;97081.88;;;4.24;100.00
11038;BME280;5572;49.540;11.932;2023-04-02T18:40:56;97083.50;;;4.25;100.00
11038;BME280;5572;49.540;11.932;2023-04-02T18:43:34;97080.81;;;4.25;100.00
11038;BME280;5572;49.540;11.932;2023-04-02T18:46:09;97098.16;;;4.23;100.00
11038;BME280;5572;49.540;11.932;2023-04-02T18:48:41;97096.88;;;4.25;100.00
11038;BME280;5572;49.540;11.932;2023-04-02T18:51:15;97120.50;;;4.17;100.00
11038;BME280;5572;49.540;11.932;2023-04-02T18:53:44;97109.34;;;4.20;100.00
11038;BME280;5572;49.540;11.932;2023-04-02T18:56:15;97122.94;;;4.19;100.00
11038;BME280;5572;49.540;11.932;2023-04-02T18:58:50;97135.38;;;4.24;100.00
11038;BME280;5572;49.540;11.932;2023-04-02T19:01:26;97142.69;;;4.29;100.00
11038;BME280;5572;49.540;11.932;2023-04-02T19:03:56;97145.16;;;4.19;100.00
11038;BME280;5572;49.540;11.932;2023-04-02T19:06:28;97141.41;;;4.31;100.00
11038;BME280;5572;49.540;11.932;2023-04-02T19:08:58;97145.72;;;4.10;100.00
11038;BME280;5572;49.540;11.932;2023-04-02T19:11:27;97156.22;;;4.11;100.00
11038;BME280;5572;49.540;11.932;2023-04-02T19:13:57;97149.44;;;4.31;100.00
11038;BME280;5572;49.540;11.932;2023-04-02T19:19:36;97172.72;;;4.08;100.00
11038;BME280;5572;49.540;11.932;2023-04-02T19:22:27;97166.81;;;4.18;100.00
11038;BME280;5572;49.540;11.932;2023-04-02T19:25:15;97173.91;;;4.12;100.00
11038;BME280;5572;49.540;11.932;2023-04-02T19:27:54;97167.13;;;4.21;100.00
11038;BME280;5572;49.540;11.932;2023-04-02T19:30:44;97162.38;;;4.12;100.00
11038;BME280;5572;49.540;11.932;2023-04-02T19:33:26;97180.28;;;4.11;100.00
11038;BME280;5572;49.540;11.932;2023-04-02T19:35:56;97179.47;;;4.11;100.00
11038;BME280;5572;49.540;11.932;2023-04-02T19:38:41;97174.59;;;4.08;100.00
11038;BME280;5572;49.540;11.932;2023-04-02T19:41:21;97191.69;;;4.07;100.00
11038;BME280;5572;49.540;11.932;2023-04-02T19:43:53;97171.31;;;4.17;100.00
11038;BME280;5572;49.540;11.932;2023-04-02T19:46:21;97176.00;;;3.99;100.00
11038;BME280;5572;49.540;11.932;2023-04-02T19:48:52;97179.38;;;4.06;100.00
11038;BME280;5572;49.540;11.932;2023-04-02T19:51:22;97176.22;;;4.09;100.00
11038;BME280;5572;49.540;11.932;2023-04-02T19:53:48;97172.28;;;4.11;100.00
11038;BME280;5572;49.540;11.932;2023-04-02T19:56:15;97172.94;;;4.18;100.00
11038;BME280;5572;49.540;11.932;2023-04-02T19:58:41;97182.94;;;4.00;100.00
11038;BME280;5572;49.540;11.932;2023-04-02T20:01:09;97197.75;;;4.02;100.00
11038;BME280;5572;49.540;11.932;2023-04-02T20:03:36;97202.16;;;3.97;100.00
11038;BME280;5572;49.540;11.932;2023-04-02T20:06:02;97212.50;;;3.93;100.00
11038;BME280;5572;49.540;11.932;2023-04-02T20:08:29;97217.16;;;3.98;100.00
11038;BME280;5572;49.540;11.932;2023-04-02T20:10:56;97208.09;;;4.10;100.00
11038;BME280;5572;49.540;11.932;2023-04-02T20:13:24;97226.19;;;3.85;100.00
11038;BME280;5572;49.540;11.932;2023-04-02T20:15:51;97221.09;;;3.95;100.00
11038;BME280;5572;49.540;11.932;2023-04-02T20:18:19;97235.38;;;4.01;100.00
11038;BME280;5572;49.540;11.932;2023-04-02T20:20:46;97244.13;;;3.96;100.00
11038;BME280;5572;49.540;11.932;2023-04-02T20:23:13;97237.13;;;3.95;100.00
11038;BME280;5572;49.540;11.932;2023-04-02T20:26:03;97262.38;;;3.99;100.00
11038;BME280;5572;49.540;11.932;2023-04-02T20:42:37;97311.53;;;3.87;100.00
11038;BME280;5572;49.540;11.932;2023-04-02T20:45:05;97328.28;;;3.82;100.00
11038;BME280;5572;49.540;11.932;2023-04-02T20:47:33;97350.69;;;3.81;100.00
11038;BME280;5572;49.540;11.932;2023-04-02T20:49:59;97366.16;;;3.79;100.00
11038;BME280;5572;49.540;11.932;2023-04-02T20:52:26;97366.59;;;3.76;100.00
11038;BME280;5572;49.540;11.932;2023-04-02T20:54:54;97383.22;;;3.78;100.00
11038;BME280;5572;49.540;11.932;2023-04-02T20:57:21;97383.09;;;3.73;100.00
11038;BME280;5572;49.540;11.932;2023-04-02T20:59:49;97400.19;;;3.72;100.00
11038;BME280;5572;49.540;11.932;2023-04-02T21:02:17;97407.16;;;3.73;100.00
11038;BME280;5572;49.540;11.932;2023-04-02T21:04:43;97438.72;;;3.65;100.00
11038;BME280;5572;49.540;11.932;2023-04-02T21:07:10;97434.66;;;3.62;100.00
11038;BME280;5572;49.540;11.932;2023-04-02T21:09:36;97429.31;;;3.62;100.00